KHSP

Ingalls Field Airport

Hot Springs, Virginia, USA
METAR KHSP 160035Z AUTO 10009KT 1/4SM DZ OVC002 06/06 A2991 RMK AO2 P0004 T00620062
Observed Flight Rules
Dec-16 @ 00:35 UTC (40 minutes ago) Instrument Flight Rules
Wind Visibility Clouds Conditions
100° at 9 knots 1/4 miles
  • Overcast at 200' AGL
  • Drizzle
Temperatures Readings Precipitation
Current 6°C / 43°F
Dewpoint 6°C / 43°F
Humidity 100%
Altimeter 29.91" Hg
Pressure 1013 hPa
Elevation 1156
Current Rain 0.04
METAR KHSP 160035Z AUTO 10009KT 1/4SM DZ OVC002 06/06 A2991 RMK AO2 P0004 T00620062
Observed Flight Rules
Dec-16 @ 00:35 UTC
(40 minutes ago)
LIFR
Wind Visibility
100° at 9 knots 1/4 miles
Clouds
  • Overcast at 200' AGL
Conditions
  • Drizzle
Temperature Dewpoint
6°C / 43°F 6°C / 43°F
Humidity Altimeter Pressure
100% 29.91" Hg 1013 hPa
Current Rain
0.04